Pagrindinis puslapis
METAR-TAF:

METAR-TAF

Oro uostai :

Jendouba, Tunisas

platuma: 36-29N, ilguma: 008-48E, Aukštis: 143 m

Dabartinis oras

Ataskaita buvo paskelbta 42 minutes, ne 18:00 UTC
Vėjas 8 kt iš Šiaurės/Šiaurės Vakarų, svyruoja nuo Vakarų/Šiaurės Vakarų ir Šiaurės/Šiaurės Rytų
Temperatūra 29°C
Drėgmė 55%
Slėgis 1014 hPa
Matomumas 10 km arba daugiau
Išsisklaidę debesys ne aukštis 2000 ft

METAR: DTTN 191800Z 33008KT 300V020 9999 SCT020 29/19 Q1014

Laikas: 19:42 (18:42 UTC)


TAF: trūkstamas

Orai ataskaitas ir orų prognozės (METAR, TAF).

turimą stotys yra geltonos ir raudonos taškus žemėlapyje.

Perkelti pele per norėdami pamatyti stoties vardą.

Tada spustelėkite, norėdami matyti oro stebėjimo ir prognozės.

Norėdami pakeisti žemėlapį: spustelėkite ant žalios mygtukų su juodo kryžiaus žemyn,; žalią mygtuką su brūkšneliu, jei norite nutolinti; arba žalių rodyklių gretimoms žemėlapius.


METAR-TAF: